Terminal Aerodrome Forecast
Issued by NWS

Home | Current Version | Previous Version | Text Only | Print | Product List | Glossary Off
Versions: 1 2 3 4 5 6 7 8 9 10 11 12 13 14 15 16
000 FTUS41 KBOX 301738 TAFBED TAF KBED 301738Z 3018/0118 11006KT 5SM -SHRA OVC050 FM301900 11008KT P6SM BKN050 FM010800 15004KT P6SM -DZ VCSH OVC020 FM011000 14004KT P6SM -DZ VCSH OVC008 FM011200 12004KT 1SM -DZ BR OVC003 FM011400 10004KT 1SM BR OVC003 FM011600 11004KT P6SM OVC003=

USA.gov is the U.S. government's official web portal to all federal, state and local government web resources and services.